Terminal Aerodrome Forecast
Issued by NWS

Home | Current Version | Previous Version | Text Only | Print | Product List | Glossary On
Versions: 1 2 3 4 5 6 7 8 9 10 11 12 13 14 15 16 17
000
FTUS43 KJKL 062321
TAFSME
TAF
KSME 062321Z 0700/0724 24006KT P6SM SKC
     FM070400 00000KT 2SM BR SCT035
     FM070800 00000KT 1/2SM FG SCT003 SCT035
     FM071300 00000KT P6SM SCT040 BKN200
     FM071600 22008KT P6SM VCSH BKN035 OVC200=

USA.gov is the U.S. government's official web portal to all federal, state and local government web resources and services.